Current | Forecast
Updated: 11:00 AM MSK on October 21, 2017
Observed at Anapa, Russia
Temperature 63°F
Humidity 72%
Dew Point 54°F
Wind NNE at 4 mph
Pressure 30.04 in (Steady)
Conditions Scattered Clouds
Visibility 6.2 miles
UV 3 out of 16
Clouds Scattered Clouds (SCT) : 2500 ft
Yesterday's Maximum 68°F
Yesterday's Minimum 46°F approx.
Yesterday's Heating Degree Days 8 approx.
Sunrise6:50 AM MSK
Sunset5:33 PM MSK
Moon Rise8:07 AM MSK
Moon Set6:49 PM MSK
Moon PhaseMoon Phase
New Moon
Raw METARMETAR URKA 210800Z 02002MPS 260V050 9999 SCT025 17/12 Q1017 R04/010070 TEMPO 0500 FG BKN002 RMK QFE759/1012


Monday
. High: 62° F.
Tuesday
. High: 60° F.
Wednesday
. High: 62° F.
Thursday
. High: 62° F.
Friday
. High: 62° F.
Saturday
. High: 62° F.
Sunday
. High: 60° F.
Monday
. High: 62° F.

Units: English | Metric

Find the Weather for any City, State or Zipcode, or Country:

U.S. State List | Severe Weather | Tropical Storms | Ski Conditions
United States | Canada | Central America | South America | Asia | Europe | Australia | Africa | Islands

Weather Underground

© Copyright 2017
The Weather Company, LLC